createdAt,value
2019-03-30T00:02:58.316Z,8.25
2019-03-30T00:06:02.072Z,8.23
2019-03-30T00:09:08.289Z,8.20
2019-03-30T00:12:11.929Z,8.16
2019-03-30T00:15:15.810Z,8.14
2019-03-30T00:18:19.457Z,8.11
2019-03-30T00:21:23.288Z,8.06
2019-03-30T00:24:27.143Z,8.01
2019-03-30T00:27:31.087Z,7.98
2019-03-30T00:30:34.923Z,7.98
2019-03-30T00:33:38.867Z,7.99
2019-03-30T00:36:42.534Z,7.94
2019-03-30T00:39:46.427Z,7.91
2019-03-30T00:42:50.574Z,7.88
2019-03-30T00:45:54.296Z,7.85
2019-03-30T00:48:58.075Z,7.69
2019-03-30T00:52:01.979Z,7.73
2019-03-30T00:55:07.192Z,7.70
2019-03-30T00:58:11.152Z,7.66
2019-03-30T01:01:15.064Z,7.62
2019-03-30T01:04:18.768Z,7.60
2019-03-30T01:07:22.580Z,7.56
2019-03-30T01:10:26.488Z,7.52
2019-03-30T01:13:30.459Z,7.51
2019-03-30T01:16:34.251Z,7.47
2019-03-30T01:19:38.256Z,7.43
2019-03-30T01:22:42.067Z,7.36
2019-03-30T01:25:46.110Z,7.29
2019-03-30T01:28:50.586Z,7.26
2019-03-30T01:31:54.468Z,7.23
2019-03-30T01:34:58.371Z,7.21
2019-03-30T01:38:02.203Z,7.14
2019-03-30T01:41:05.941Z,7.13
2019-03-30T01:44:09.896Z,7.12
2019-03-30T01:47:13.736Z,7.08
2019-03-30T01:50:18.224Z,7.07
2019-03-30T01:53:22.044Z,7.03
2019-03-30T01:56:26.111Z,7.01
2019-03-30T01:59:30.212Z,7.02
2019-03-30T02:02:34.006Z,6.98
2019-03-30T02:05:38.104Z,6.96
2019-03-30T02:08:42.036Z,6.94
2019-03-30T02:11:46.097Z,6.84
2019-03-30T02:14:50.010Z,6.84
2019-03-30T02:17:53.798Z,6.81
2019-03-30T02:20:57.732Z,6.76
2019-03-30T02:24:01.812Z,6.77
2019-03-30T02:27:05.809Z,6.73
2019-03-30T02:30:09.614Z,6.67
2019-03-30T02:33:13.297Z,6.66
2019-03-30T02:36:17.213Z,6.65
2019-03-30T02:39:21.101Z,6.61
2019-03-30T02:42:24.931Z,6.61
2019-03-30T02:45:28.763Z,6.58
2019-03-30T02:48:32.854Z,6.53
2019-03-30T02:51:36.778Z,6.49
2019-03-30T02:54:41.012Z,6.47
2019-03-30T02:57:44.909Z,6.45
2019-03-30T03:00:48.928Z,6.41
2019-03-30T03:03:52.751Z,6.40
2019-03-30T03:06:56.668Z,6.37
2019-03-30T03:10:00.523Z,6.33
2019-03-30T03:13:04.273Z,6.29
2019-03-30T03:16:08.189Z,6.26
2019-03-30T03:19:11.997Z,6.22
2019-03-30T03:22:16.169Z,6.18
2019-03-30T03:25:20.020Z,6.16
2019-03-30T03:28:23.740Z,6.14
2019-03-30T03:31:27.743Z,6.11
2019-03-30T03:34:31.687Z,6.05
2019-03-30T03:37:44.590Z,6.00
2019-03-30T03:40:41.052Z,5.98
2019-03-30T03:43:44.862Z,5.96
2019-03-30T03:46:48.836Z,5.92
2019-03-30T03:49:52.873Z,5.89
2019-03-30T03:52:56.780Z,5.89
2019-03-30T03:56:01.336Z,5.86
2019-03-30T03:59:05.099Z,5.82
2019-03-30T04:02:08.944Z,5.80
2019-03-30T04:05:12.868Z,5.77
2019-03-30T04:08:16.758Z,5.73
2019-03-30T04:11:20.458Z,5.69
2019-03-30T04:14:26.161Z,5.65
2019-03-30T04:17:30.068Z,5.68
2019-03-30T04:20:33.991Z,5.66
2019-03-30T04:23:37.858Z,5.62
2019-03-30T04:26:41.892Z,5.59
2019-03-30T04:29:45.870Z,5.56
2019-03-30T04:32:49.890Z,5.53
2019-03-30T04:35:54.347Z,5.50
2019-03-30T04:38:58.104Z,5.47
2019-03-30T04:42:02.184Z,5.47
2019-03-30T04:45:07.449Z,5.39
2019-03-30T04:48:11.347Z,5.38
2019-03-30T04:51:16.943Z,5.38
2019-03-30T04:54:20.768Z,5.38
2019-03-30T04:57:25.924Z,5.41
2019-03-30T05:00:29.947Z,5.42
2019-03-30T05:03:33.843Z,5.46
2019-03-30T05:06:37.544Z,5.49
2019-03-30T05:09:42.545Z,5.56
2019-03-30T05:12:47.653Z,5.61
2019-03-30T05:15:50.957Z,5.68
2019-03-30T05:18:55.391Z,5.77
2019-03-30T05:22:11.589Z,5.83
2019-03-30T05:25:06.221Z,5.92
2019-03-30T05:28:10.587Z,6.04
2019-03-30T05:31:14.227Z,6.15
2019-03-30T05:34:17.978Z,6.26
2019-03-30T05:37:21.671Z,6.40
2019-03-30T05:40:25.446Z,6.55
2019-03-30T05:43:29.216Z,6.74
2019-03-30T05:46:33.524Z,6.93
2019-03-30T05:49:37.580Z,7.04
2019-03-30T05:52:41.344Z,7.18
2019-03-30T05:55:46.598Z,7.63
2019-03-30T05:58:51.072Z,8.06
2019-03-30T06:01:55.025Z,8.53
2019-03-30T06:05:02.935Z,9.16
2019-03-30T06:08:06.874Z,9.60
2019-03-30T06:11:11.131Z,10.21
2019-03-30T06:14:15.054Z,11.22
2019-03-30T06:17:18.990Z,12.17
2019-03-30T06:20:23.280Z,12.94
2019-03-30T06:23:26.959Z,13.52
2019-03-30T06:26:30.614Z,14.22
2019-03-30T06:29:34.422Z,14.71
2019-03-30T06:32:38.251Z,15.13
2019-03-30T06:35:41.950Z,15.60
2019-03-30T06:38:45.688Z,15.99
2019-03-30T06:41:49.483Z,16.22
2019-03-30T06:44:53.388Z,16.79
2019-03-30T06:47:57.124Z,17.15
2019-03-30T06:51:00.842Z,17.67
2019-03-30T06:54:04.721Z,17.89
2019-03-30T06:57:09.038Z,17.89
2019-03-30T07:00:12.833Z,17.89
2019-03-30T07:03:16.685Z,17.91
2019-03-30T07:06:20.496Z,18.05
2019-03-30T07:09:24.232Z,17.95
2019-03-30T07:12:27.890Z,18.13
2019-03-30T07:15:31.880Z,18.40
2019-03-30T07:18:35.990Z,18.24
2019-03-30T07:21:40.070Z,18.15
2019-03-30T07:24:43.712Z,17.83
2019-03-30T07:27:47.776Z,17.29
2019-03-30T07:30:51.676Z,17.01
2019-03-30T07:33:55.558Z,16.80
2019-03-30T07:36:59.406Z,16.96
2019-03-30T07:40:03.675Z,17.15
2019-03-30T07:43:07.461Z,17.32
2019-03-30T07:46:11.258Z,17.45
2019-03-30T07:49:14.958Z,17.50
2019-03-30T07:52:18.810Z,17.69
2019-03-30T07:55:22.639Z,17.98
2019-03-30T07:58:26.431Z,18.48
2019-03-30T08:01:30.782Z,18.48
2019-03-30T08:04:34.468Z,18.55
2019-03-30T08:07:38.641Z,18.83
2019-03-30T08:10:42.802Z,18.91
2019-03-30T08:13:46.612Z,19.44
2019-03-30T08:16:50.709Z,19.60
2019-03-30T08:19:54.381Z,19.69
2019-03-30T08:22:58.334Z,19.78
2019-03-30T08:26:02.033Z,19.95
2019-03-30T08:29:05.902Z,20.18
2019-03-30T08:32:09.683Z,20.18
2019-03-30T08:35:13.462Z,20.24
2019-03-30T08:38:17.234Z,20.03
2019-03-30T08:41:20.911Z,19.98
2019-03-30T08:44:24.617Z,19.89
2019-03-30T08:47:28.336Z,20.35
2019-03-30T08:50:32.150Z,20.71
2019-03-30T08:53:35.949Z,20.70
2019-03-30T08:56:39.941Z,20.78
2019-03-30T08:59:43.581Z,20.75
2019-03-30T09:02:47.324Z,20.83
2019-03-30T09:05:51.208Z,20.72
2019-03-30T09:08:54.855Z,21.11
2019-03-30T09:11:58.558Z,21.18
2019-03-30T09:15:02.348Z,21.18
2019-03-30T09:18:06.147Z,21.43
2019-03-30T09:21:09.782Z,21.67
2019-03-30T09:24:13.647Z,22.07
2019-03-30T09:27:17.502Z,22.46
2019-03-30T09:30:21.462Z,22.70
2019-03-30T09:33:25.404Z,23.03
2019-03-30T09:36:29.213Z,23.16
2019-03-30T09:39:33.269Z,22.99
2019-03-30T09:42:42.069Z,23.33
2019-03-30T09:45:48.044Z,23.73
2019-03-30T09:48:52.028Z,24.28
2019-03-30T09:51:55.708Z,24.50
2019-03-30T09:54:59.272Z,24.25
2019-03-30T09:58:03.179Z,24.65
2019-03-30T10:01:06.925Z,25.05
2019-03-30T10:04:10.732Z,25.04
2019-03-30T10:07:14.747Z,25.38
2019-03-30T10:10:18.961Z,25.75
2019-03-30T10:13:22.864Z,26.12
2019-03-30T10:16:27.034Z,26.03
2019-03-30T10:19:30.405Z,26.24
2019-03-30T10:22:34.114Z,26.22
2019-03-30T10:25:38.092Z,26.31
2019-03-30T10:28:41.328Z,26.90
2019-03-30T10:31:45.029Z,27.10
2019-03-30T10:34:50.562Z,27.08
2019-03-30T10:37:54.280Z,26.86
2019-03-30T10:40:58.307Z,27.07
2019-03-30T10:44:02.416Z,27.10
2019-03-30T10:47:05.524Z,26.89
2019-03-30T10:50:09.274Z,26.23
2019-03-30T10:53:13.071Z,25.62
2019-03-30T10:56:16.744Z,25.96
2019-03-30T10:59:20.609Z,26.30
2019-03-30T11:02:24.267Z,26.66
2019-03-30T11:05:27.956Z,26.70
2019-03-30T11:08:31.732Z,26.82
2019-03-30T11:11:35.606Z,26.29
2019-03-30T11:14:39.562Z,25.51
2019-03-30T11:17:43.314Z,25.16
2019-03-30T11:20:47.202Z,24.87
2019-03-30T11:23:51.381Z,24.67
2019-03-30T11:26:55.180Z,24.74
2019-03-30T11:29:59.250Z,24.38
2019-03-30T11:33:03.327Z,24.22
2019-03-30T11:36:07.388Z,23.85
2019-03-30T11:39:11.493Z,23.30
2019-03-30T11:42:15.664Z,22.91
2019-03-30T11:45:19.828Z,22.12
2019-03-30T11:48:23.878Z,21.62
2019-03-30T11:51:27.881Z,21.23
2019-03-30T11:54:31.735Z,21.11
2019-03-30T11:57:35.827Z,20.96
2019-03-30T12:00:40.038Z,20.85
2019-03-30T12:03:44.096Z,20.85
2019-03-30T12:06:51.611Z,20.90
2019-03-30T12:09:54.358Z,20.97
2019-03-30T12:12:58.376Z,21.34
2019-03-30T12:16:02.411Z,21.67
2019-03-30T12:19:06.385Z,21.80
2019-03-30T12:22:10.540Z,21.91
2019-03-30T12:25:14.418Z,22.06
2019-03-30T12:28:18.439Z,22.07
2019-03-30T12:31:22.590Z,21.78
2019-03-30T12:34:26.265Z,21.36
2019-03-30T12:37:30.132Z,21.00
2019-03-30T12:40:34.072Z,20.76
2019-03-30T12:43:39.148Z,20.33
2019-03-30T12:46:43.600Z,20.11
2019-03-30T12:49:47.844Z,19.63
2019-03-30T12:52:51.711Z,19.40
2019-03-30T12:55:55.663Z,19.16
2019-03-30T12:58:59.682Z,19.07
2019-03-30T13:02:03.454Z,19.01
2019-03-30T13:05:07.954Z,18.78
2019-03-30T13:08:12.303Z,18.67
2019-03-30T13:11:16.724Z,18.53
2019-03-30T13:14:21.054Z,18.54
2019-03-30T13:17:25.425Z,18.59
2019-03-30T13:20:29.866Z,18.56
2019-03-30T13:23:34.352Z,18.46
2019-03-30T13:26:38.612Z,18.33
2019-03-30T13:29:42.419Z,18.28
2019-03-30T13:32:46.627Z,18.18
2019-03-30T13:35:51.608Z,18.06
2019-03-30T13:38:54.685Z,17.97
2019-03-30T13:41:59.089Z,17.96
2019-03-30T13:45:04.046Z,17.93
2019-03-30T13:48:08.630Z,17.88
2019-03-30T13:51:12.661Z,17.87
2019-03-30T13:54:17.040Z,17.69
2019-03-30T13:57:21.201Z,17.56
2019-03-30T14:00:24.775Z,17.54
2019-03-30T14:03:28.947Z,17.48
2019-03-30T14:06:32.733Z,17.48
2019-03-30T14:09:36.599Z,17.56
2019-03-30T14:12:40.527Z,17.52
2019-03-30T14:15:44.543Z,17.50
2019-03-30T14:18:48.833Z,17.55
2019-03-30T14:21:52.690Z,17.55
2019-03-30T14:24:56.531Z,17.48
2019-03-30T14:28:01.922Z,17.36
2019-03-30T14:31:06.861Z,17.33
2019-03-30T14:34:12.125Z,17.31
2019-03-30T14:37:18.559Z,17.28
2019-03-30T14:40:22.172Z,17.26
2019-03-30T14:43:26.013Z,17.24
2019-03-30T14:46:29.791Z,17.29
2019-03-30T14:49:33.862Z,17.37
2019-03-30T14:52:37.738Z,17.36
2019-03-30T14:55:41.875Z,17.40
2019-03-30T14:58:46.029Z,17.38
2019-03-30T15:01:50.099Z,17.32
2019-03-30T15:04:54.501Z,17.30
2019-03-30T15:07:58.224Z,17.26
2019-03-30T15:11:02.448Z,17.16
2019-03-30T15:14:06.460Z,17.13
2019-03-30T15:17:10.546Z,17.06
2019-03-30T15:20:15.741Z,17.00
2019-03-30T15:23:19.782Z,16.97
2019-03-30T15:26:23.639Z,16.96
2019-03-30T15:29:27.552Z,16.91
2019-03-30T15:32:31.615Z,16.92
2019-03-30T15:35:35.387Z,16.86
2019-03-30T15:38:39.182Z,16.81
2019-03-30T15:41:43.079Z,16.76
2019-03-30T15:44:46.930Z,16.69
2019-03-30T15:47:52.043Z,16.61
2019-03-30T15:50:55.156Z,16.52
2019-03-30T15:53:59.047Z,16.47
2019-03-30T15:57:13.563Z,16.38
2019-03-30T16:00:13.297Z,16.34
2019-03-30T16:03:18.921Z,16.28
2019-03-30T16:06:22.623Z,16.23
2019-03-30T16:09:26.523Z,16.16
2019-03-30T16:12:30.317Z,16.08
2019-03-30T16:15:33.965Z,16.05
2019-03-30T16:18:37.845Z,15.99
2019-03-30T16:21:41.850Z,15.96
2019-03-30T16:24:45.584Z,15.89
2019-03-30T16:27:50.554Z,15.85
2019-03-30T16:30:54.327Z,15.79
2019-03-30T16:33:58.139Z,15.73
2019-03-30T16:37:01.833Z,15.68
2019-03-30T16:40:06.478Z,15.61
2019-03-30T16:43:10.224Z,15.51
2019-03-30T16:46:21.234Z,15.40
2019-03-30T16:49:45.963Z,15.34
2019-03-30T16:52:49.757Z,15.23
2019-03-30T16:55:54.045Z,15.12
2019-03-30T16:58:58.015Z,15.03
2019-03-30T17:02:02.166Z,14.91
2019-03-30T17:05:07.769Z,14.78
2019-03-30T17:08:11.387Z,14.69
2019-03-30T17:11:15.430Z,14.60
2019-03-30T17:14:19.371Z,14.47
2019-03-30T17:17:23.330Z,14.35
2019-03-30T17:20:27.108Z,14.23
2019-03-30T17:23:30.770Z,14.13
2019-03-30T17:26:34.586Z,14.01
2019-03-30T17:29:38.411Z,13.89
2019-03-30T17:32:42.071Z,13.74
2019-03-30T17:35:46.174Z,13.63
2019-03-30T17:38:49.904Z,13.51
2019-03-30T17:41:53.730Z,13.38
2019-03-30T17:44:57.913Z,13.25
2019-03-30T17:48:01.986Z,13.11
2019-03-30T17:51:06.203Z,12.94
2019-03-30T17:54:09.986Z,12.84
2019-03-30T17:57:17.195Z,12.77
2019-03-30T18:00:20.529Z,12.67
2019-03-30T18:03:23.579Z,12.62
2019-03-30T18:06:27.296Z,12.57
2019-03-30T18:09:30.944Z,12.49
2019-03-30T18:12:34.778Z,12.40
2019-03-30T18:15:38.443Z,12.37
2019-03-30T18:18:42.258Z,12.31
2019-03-30T18:21:45.870Z,12.25
2019-03-30T18:24:49.530Z,12.16
2019-03-30T18:27:53.393Z,12.08
2019-03-30T18:30:57.270Z,11.98
2019-03-30T18:34:02.558Z,11.92
2019-03-30T18:37:06.831Z,11.83
2019-03-30T18:40:12.248Z,11.74
2019-03-30T18:43:16.300Z,11.66
2019-03-30T18:46:20.167Z,11.58
2019-03-30T18:49:23.954Z,11.56
2019-03-30T18:52:27.838Z,11.51
2019-03-30T18:55:31.817Z,11.47
2019-03-30T18:58:41.780Z,11.43
2019-03-30T19:01:41.067Z,11.35
2019-03-30T19:04:44.966Z,11.22
2019-03-30T19:07:48.720Z,11.13
2019-03-30T19:10:52.410Z,11.04
2019-03-30T19:13:56.168Z,10.97
2019-03-30T19:16:59.842Z,10.87
2019-03-30T19:20:04.452Z,10.78
2019-03-30T19:23:08.640Z,10.65
2019-03-30T19:26:12.607Z,10.49
2019-03-30T19:29:16.271Z,10.41
2019-03-30T19:32:20.270Z,10.32
2019-03-30T19:35:23.991Z,10.21
2019-03-30T19:38:27.710Z,10.08
2019-03-30T19:41:31.406Z,10.00
2019-03-30T19:44:35.401Z,9.95
2019-03-30T19:47:39.244Z,9.84
2019-03-30T19:50:43.094Z,9.77
2019-03-30T19:53:46.925Z,9.74
2019-03-30T19:56:50.580Z,9.65
2019-03-30T19:59:54.298Z,9.55
2019-03-30T20:02:58.075Z,9.46
2019-03-30T20:06:03.051Z,9.31
2019-03-30T20:09:07.622Z,9.17
2019-03-30T20:12:12.045Z,9.07
2019-03-30T20:15:16.062Z,9.02
2019-03-30T20:18:19.730Z,8.95
2019-03-30T20:21:23.396Z,9.01
2019-03-30T20:24:27.350Z,8.99
2019-03-30T20:27:31.077Z,8.94
2019-03-30T20:30:34.720Z,8.86
2019-03-30T20:33:38.409Z,8.76
2019-03-30T20:36:42.036Z,8.64
2019-03-30T20:39:45.686Z,8.72
2019-03-30T20:42:49.384Z,8.82
2019-03-30T20:45:53.310Z,8.91
2019-03-30T20:48:56.965Z,8.97
2019-03-30T20:52:00.555Z,9.00
2019-03-30T20:55:05.322Z,9.02
2019-03-30T20:58:09.152Z,8.94
2019-03-30T21:01:12.948Z,8.82
2019-03-30T21:04:16.719Z,8.73
2019-03-30T21:07:20.438Z,8.65
2019-03-30T21:10:24.168Z,8.60
2019-03-30T21:13:28.029Z,8.59
2019-03-30T21:16:31.730Z,8.52
2019-03-30T21:19:35.503Z,8.53
2019-03-30T21:22:39.392Z,8.56
2019-03-30T21:25:43.162Z,8.56
2019-03-30T21:28:46.776Z,8.54
2019-03-30T21:31:51.543Z,8.40
2019-03-30T21:34:55.730Z,8.37
2019-03-30T21:37:59.552Z,8.39
2019-03-30T21:41:05.080Z,8.35
2019-03-30T21:44:21.480Z,8.32
2019-03-30T21:47:17.423Z,8.23
2019-03-30T21:50:22.468Z,8.18
2019-03-30T21:53:27.167Z,8.20
2019-03-30T21:56:34.036Z,8.27
2019-03-30T21:59:44.174Z,8.31
2019-03-30T22:02:50.496Z,8.33
2019-03-30T22:05:54.541Z,8.33
2019-03-30T22:08:58.510Z,8.34
2019-03-30T22:12:03.756Z,8.37
2019-03-30T22:15:07.524Z,8.46
2019-03-30T22:18:11.488Z,8.57
2019-03-30T22:21:15.275Z,8.68
2019-03-30T22:24:19.377Z,8.77
2019-03-30T22:27:23.110Z,8.87
2019-03-30T22:30:26.740Z,8.95
2019-03-30T22:33:30.955Z,9.07
2019-03-30T22:36:34.732Z,9.17
2019-03-30T22:39:38.460Z,9.18
2019-03-30T22:42:42.218Z,9.23
2019-03-30T22:45:45.828Z,9.36
2019-03-30T22:48:49.661Z,9.44
2019-03-30T22:51:53.312Z,9.48
2019-03-30T22:54:57.138Z,9.44
2019-03-30T22:58:01.044Z,9.35
2019-03-30T23:01:06.414Z,9.31
2019-03-30T23:04:10.298Z,9.26
2019-03-30T23:07:14.342Z,9.17
2019-03-30T23:10:18.179Z,9.09
2019-03-30T23:13:21.939Z,9.03
2019-03-30T23:16:25.905Z,9.00
2019-03-30T23:19:29.666Z,9.05
2019-03-30T23:22:33.572Z,9.04
2019-03-30T23:25:37.302Z,9.00
2019-03-30T23:28:40.991Z,8.92
2019-03-30T23:31:44.934Z,8.83
2019-03-30T23:34:48.754Z,8.71
2019-03-30T23:37:52.390Z,8.65
2019-03-30T23:40:56.015Z,8.60
2019-03-30T23:43:59.678Z,8.54
2019-03-30T23:47:03.353Z,8.48
2019-03-30T23:50:07.753Z,8.43
2019-03-30T23:53:11.467Z,8.43
2019-03-30T23:56:20.882Z,8.41
2019-03-30T23:59:24.694Z,8.40
